Terminal Aerodrome Forecast
Issued by NWS Duluth, MN

Home | Current Version | Previous Version | Text Only | Print | Product List | Glossary On
Versions: 1 2 3 4 5 6 7 8 9 10 11 12 13 14 15 16 17 18 19
016
FTUS43 KDLH 280535
TAFINL
TAF
KINL 280535Z 2806/2906 14003KT 6SM BR SCT050
      TEMPO 2806/2809 3SM BR BKN050
     FM280900 VRB02KT 3SM BR SCT010
      TEMPO 2809/2812 1 1/2SM BR BKN010
     FM281400 15007KT P6SM SCT020
     FM281900 15007KT P6SM BKN040
     FM290300 15004KT P6SM VCTS SCT040CB BKN100=

USA.gov is the U.S. government's official web portal to all federal, state and local government web resources and services.